createdAt,value
2019-02-12T00:02:29.796Z,3.20
2019-02-12T00:05:02.023Z,3.20
2019-02-12T00:07:34.288Z,3.70
2019-02-12T00:10:07.000Z,3.30
2019-02-12T00:12:39.305Z,4.13
2019-02-12T00:15:11.441Z,4.10
2019-02-12T00:17:43.690Z,4.67
2019-02-12T00:20:15.826Z,3.50
2019-02-12T00:22:48.061Z,4.60
2019-02-12T00:25:20.282Z,3.27
2019-02-12T00:27:52.597Z,3.40
2019-02-12T00:30:24.882Z,3.30
2019-02-12T00:32:57.156Z,3.63
2019-02-12T00:35:29.295Z,3.90
2019-02-12T00:38:01.506Z,4.53
2019-02-12T00:40:33.763Z,3.80
2019-02-12T00:43:05.932Z,3.10
2019-02-12T00:45:38.221Z,3.40
2019-02-12T00:48:10.525Z,3.43
2019-02-12T00:50:42.659Z,3.60
2019-02-12T00:53:14.996Z,3.07
2019-02-12T00:55:47.125Z,3.10
2019-02-12T00:58:19.295Z,3.10
2019-02-12T01:00:51.519Z,3.27
2019-02-12T01:03:24.844Z,2.80
2019-02-12T01:05:57.127Z,3.30
2019-02-12T01:08:29.523Z,2.77
2019-02-12T01:11:01.665Z,3.23
2019-02-12T01:13:33.830Z,3.03
2019-02-12T01:16:06.051Z,2.87
2019-02-12T01:18:38.435Z,3.00
2019-02-12T01:21:10.566Z,3.17
2019-02-12T01:23:42.877Z,2.90
2019-02-12T01:26:15.171Z,3.53
2019-02-12T01:28:47.428Z,3.83
2019-02-12T01:31:19.642Z,3.13
2019-02-12T01:33:51.810Z,4.20
2019-02-12T01:36:24.015Z,3.83
2019-02-12T01:38:56.620Z,4.63
2019-02-12T01:41:28.845Z,4.10
2019-02-12T01:44:01.013Z,3.87
2019-02-12T01:46:33.157Z,2.80
2019-02-12T01:49:05.307Z,3.00
2019-02-12T01:51:38.680Z,3.17
2019-02-12T01:54:10.847Z,3.37
2019-02-12T01:56:43.045Z,3.23
2019-02-12T01:59:15.281Z,4.33
2019-02-12T02:01:47.432Z,3.93
2019-02-12T02:04:20.831Z,3.20
2019-02-12T02:06:52.952Z,3.07
2019-02-12T02:09:29.041Z,3.23
2019-02-12T02:11:59.234Z,3.30
2019-02-12T02:14:32.291Z,3.03
2019-02-12T02:17:04.492Z,3.27
2019-02-12T02:19:36.657Z,3.10
2019-02-12T02:22:08.837Z,4.53
2019-02-12T02:24:41.071Z,3.30
2019-02-12T02:27:13.275Z,2.70
2019-02-12T02:29:45.507Z,2.97
2019-02-12T02:32:17.797Z,3.43
2019-02-12T02:34:50.198Z,2.90
2019-02-12T02:37:22.402Z,3.27
2019-02-12T02:39:54.655Z,3.80
2019-02-12T02:42:26.839Z,3.60
2019-02-12T02:44:59.091Z,3.30
2019-02-12T02:47:31.412Z,2.73
2019-02-12T02:50:03.689Z,3.20
2019-02-12T02:52:36.055Z,2.80
2019-02-12T02:55:09.037Z,3.53
2019-02-12T02:57:42.707Z,3.27
2019-02-12T03:00:14.946Z,3.17
2019-02-12T03:02:47.761Z,2.50
2019-02-12T03:05:19.930Z,3.60
2019-02-12T03:07:52.088Z,2.30
2019-02-12T03:10:24.247Z,3.20
2019-02-12T03:12:56.323Z,3.30
2019-02-12T03:15:28.493Z,3.70
2019-02-12T03:18:00.612Z,3.43
2019-02-12T03:20:32.767Z,3.27
2019-02-12T03:23:04.983Z,3.00
2019-02-12T03:25:37.386Z,3.20
2019-02-12T03:28:09.582Z,3.57
2019-02-12T03:30:41.848Z,3.00
2019-02-12T03:33:13.982Z,3.10
2019-02-12T03:35:46.142Z,3.40
2019-02-12T03:38:18.466Z,3.40
2019-02-12T03:40:50.627Z,2.97
2019-02-12T03:43:22.821Z,2.80
2019-02-12T03:45:55.105Z,3.27
2019-02-12T03:48:27.326Z,3.20
2019-02-12T03:50:59.567Z,3.47
2019-02-12T03:53:31.709Z,2.90
2019-02-12T03:56:03.872Z,3.40
2019-02-12T03:58:36.090Z,4.50
2019-02-12T04:01:08.332Z,4.00
2019-02-12T04:03:40.498Z,3.60
2019-02-12T04:06:12.773Z,3.57
2019-02-12T04:08:44.898Z,3.30
2019-02-12T04:11:17.062Z,4.30
2019-02-12T04:13:49.278Z,4.30
2019-02-12T04:16:21.532Z,3.63
2019-02-12T04:18:53.667Z,4.57
2019-02-12T04:21:25.828Z,3.77
2019-02-12T04:23:57.992Z,3.73
2019-02-12T04:26:30.274Z,4.37
2019-02-12T04:29:02.454Z,5.10
2019-02-12T04:31:34.638Z,4.93
2019-02-12T04:34:06.768Z,3.33
2019-02-12T04:36:39.348Z,3.80
2019-02-12T04:39:11.507Z,3.83
2019-02-12T04:41:43.686Z,4.23
2019-02-12T04:44:15.925Z,3.80
2019-02-12T04:46:48.079Z,4.03
2019-02-12T04:49:20.206Z,3.50
2019-02-12T04:51:53.485Z,3.67
2019-02-12T04:54:25.709Z,3.30
2019-02-12T04:56:58.049Z,3.57
2019-02-12T04:59:30.765Z,3.87
2019-02-12T05:02:02.978Z,4.67
2019-02-12T05:04:35.368Z,3.90
2019-02-12T05:07:07.518Z,3.80
2019-02-12T05:09:42.584Z,3.73
2019-02-12T05:12:17.603Z,3.83
2019-02-12T05:14:49.963Z,4.37
2019-02-12T05:17:22.175Z,4.13
2019-02-12T05:19:54.356Z,4.70
2019-02-12T05:22:26.557Z,7.57
2019-02-12T05:24:58.844Z,5.97
2019-02-12T05:27:31.420Z,5.47
2019-02-12T05:30:03.742Z,5.30
2019-02-12T05:32:36.019Z,4.73
2019-02-12T05:35:08.434Z,5.73
2019-02-12T05:37:40.584Z,4.30
2019-02-12T05:40:12.759Z,4.37
2019-02-12T05:42:45.070Z,4.10
2019-02-12T05:45:17.311Z,4.40
2019-02-12T05:47:49.559Z,4.17
2019-02-12T05:50:21.863Z,3.33
2019-02-12T05:52:55.085Z,3.53
2019-02-12T05:55:27.502Z,4.17
2019-02-12T05:57:59.628Z,4.90
2019-02-12T06:00:34.061Z,3.90
2019-02-12T06:03:06.377Z,3.77
2019-02-12T06:05:38.536Z,4.37
2019-02-12T06:08:10.741Z,11.07
2019-02-12T06:10:44.589Z,5.27
2019-02-12T06:13:16.772Z,5.57
2019-02-12T06:15:49.064Z,4.67
2019-02-12T06:18:21.281Z,4.80
2019-02-12T06:20:53.456Z,5.03
2019-02-12T06:23:25.595Z,4.43
2019-02-12T06:25:57.756Z,5.50
2019-02-12T06:28:29.969Z,6.80
2019-02-12T06:31:02.182Z,6.50
2019-02-12T06:33:35.410Z,5.97
2019-02-12T06:36:07.699Z,5.80
2019-02-12T06:38:40.013Z,5.20
2019-02-12T06:41:15.792Z,4.37
2019-02-12T06:43:48.179Z,4.27
2019-02-12T06:46:20.334Z,4.27
2019-02-12T06:48:52.546Z,4.50
2019-02-12T06:51:24.692Z,4.97
2019-02-12T06:53:56.920Z,5.70
2019-02-12T06:56:29.109Z,5.03
2019-02-12T06:59:01.407Z,5.90
2019-02-12T07:01:33.519Z,4.60
2019-02-12T07:04:23.536Z,6.10
2019-02-12T07:07:40.753Z,5.73
2019-02-12T07:10:23.383Z,5.57
2019-02-12T07:13:40.344Z,5.43
2019-02-12T07:17:22.557Z,4.63
2019-02-12T07:20:34.398Z,4.60
2019-02-12T07:24:55.487Z,4.30
2019-02-12T07:28:14.965Z,3.67
2019-02-12T07:31:45.312Z,3.47
2019-02-12T07:35:05.561Z,3.47
2019-02-12T07:38:41.310Z,3.90
2019-02-12T07:42:15.984Z,4.20
2019-02-12T07:45:40.835Z,5.13
2019-02-12T07:49:05.818Z,6.03
2019-02-12T07:52:40.869Z,4.80
2019-02-12T07:55:59.649Z,4.43
2019-02-12T07:59:23.247Z,5.67
2019-02-12T08:02:33.902Z,6.93
2019-02-12T08:06:04.031Z,4.63
2019-02-12T08:09:19.523Z,3.90
2019-02-12T08:12:33.836Z,4.40
2019-02-12T08:15:37.578Z,4.07
2019-02-12T08:18:37.565Z,5.23
2019-02-12T08:22:15.300Z,5.33
2019-02-12T08:25:45.823Z,4.77
2019-02-12T08:29:04.980Z,3.37
2019-02-12T08:32:29.781Z,5.03
2019-02-12T08:36:02.803Z,4.33
2019-02-12T08:39:40.414Z,4.17
2019-02-12T08:43:15.144Z,4.30
2019-02-12T08:46:42.746Z,4.87
2019-02-12T08:49:54.718Z,4.30
2019-02-12T08:53:22.202Z,4.50
2019-02-12T08:56:49.294Z,4.43
2019-02-12T08:59:56.620Z,3.73
2019-02-12T09:03:42.031Z,4.37
2019-02-12T09:07:00.646Z,3.77
2019-02-12T09:10:39.437Z,3.80
2019-02-12T09:13:38.570Z,4.70
2019-02-12T09:17:15.670Z,4.20
2019-02-12T09:20:53.023Z,3.87
2019-02-12T09:24:21.248Z,3.50
2019-02-12T09:27:25.083Z,3.30
2019-02-12T09:30:48.629Z,4.43
2019-02-12T09:34:10.177Z,3.80
2019-02-12T09:38:22.449Z,4.33
2019-02-12T09:41:23.146Z,5.10
2019-02-12T09:44:39.712Z,4.10
2019-02-12T09:47:45.291Z,3.77
2019-02-12T09:50:52.259Z,4.40
2019-02-12T09:54:40.312Z,3.83
2019-02-12T09:58:15.968Z,3.83
2019-02-12T10:01:12.608Z,3.83
2019-02-12T10:04:38.150Z,3.87
2019-02-12T10:07:30.439Z,3.90
2019-02-12T10:10:55.560Z,3.47
2019-02-12T10:14:06.989Z,4.10
2019-02-12T10:16:57.071Z,4.67
2019-02-12T10:20:08.956Z,3.90
2019-02-12T10:23:59.823Z,3.90
2019-02-12T10:26:32.769Z,4.07
2019-02-12T10:29:56.902Z,3.50
2019-02-12T10:32:27.182Z,3.43
2019-02-12T10:34:59.479Z,3.50
2019-02-12T10:37:31.763Z,4.10
2019-02-12T10:40:04.311Z,3.30
2019-02-12T10:42:37.624Z,3.60
2019-02-12T10:45:09.815Z,3.30
2019-02-12T10:47:41.997Z,3.03
2019-02-12T10:50:14.306Z,3.03
2019-02-12T10:52:46.509Z,3.30
2019-02-12T10:55:18.698Z,3.07
2019-02-12T10:57:50.900Z,3.37
2019-02-12T11:00:23.063Z,2.93
2019-02-12T11:02:55.358Z,3.10
2019-02-12T11:05:27.523Z,3.47
2019-02-12T11:07:59.909Z,2.80
2019-02-12T11:10:32.113Z,3.53
2019-02-12T11:13:04.258Z,2.60
2019-02-12T11:15:36.459Z,2.70
2019-02-12T11:18:08.702Z,2.63
2019-02-12T11:20:40.857Z,3.63
2019-02-12T11:23:12.991Z,3.40
2019-02-12T11:25:45.144Z,2.93
2019-02-12T11:28:18.410Z,3.07
2019-02-12T11:30:50.563Z,3.10
2019-02-12T11:33:22.693Z,2.97
2019-02-12T11:35:54.862Z,3.80
2019-02-12T11:38:26.995Z,3.00
2019-02-12T11:40:59.227Z,3.80
2019-02-12T11:43:32.336Z,3.43
2019-02-12T11:46:04.574Z,3.50
2019-02-12T11:48:36.697Z,4.13
2019-02-12T11:51:08.903Z,3.20
2019-02-12T11:53:41.270Z,2.83
2019-02-12T11:56:13.511Z,2.33
2019-02-12T11:58:45.634Z,2.80
2019-02-12T12:01:22.050Z,4.77
2019-02-12T12:03:54.200Z,5.00
2019-02-12T12:06:26.430Z,5.20
2019-02-12T12:08:58.594Z,5.90
2019-02-12T12:11:30.758Z,4.73
2019-02-12T12:14:02.948Z,4.60
2019-02-12T12:16:35.181Z,3.17
2019-02-12T12:19:07.399Z,3.70
2019-02-12T12:21:39.553Z,3.40
2019-02-12T12:24:11.930Z,2.77
2019-02-12T12:26:44.089Z,2.53
2019-02-12T12:29:16.212Z,2.30
2019-02-12T12:31:48.373Z,2.53
2019-02-12T12:34:20.507Z,2.80
2019-02-12T12:36:52.673Z,2.10
2019-02-12T12:39:24.822Z,2.80
2019-02-12T12:41:56.988Z,2.87
2019-02-12T12:44:29.283Z,2.30
2019-02-12T12:47:01.530Z,2.70
2019-02-12T12:49:33.667Z,2.77
2019-02-12T12:52:05.833Z,2.03
2019-02-12T12:54:38.064Z,2.77
2019-02-12T12:57:10.246Z,3.30
2019-02-12T12:59:42.461Z,2.63
2019-02-12T13:02:15.641Z,2.23
2019-02-12T13:04:48.059Z,2.10
2019-02-12T13:07:20.150Z,2.30
2019-02-12T13:09:52.428Z,2.23
2019-02-12T13:12:24.595Z,2.43
2019-02-12T13:14:56.804Z,3.20
2019-02-12T13:17:29.050Z,2.87
2019-02-12T13:20:01.740Z,2.47
2019-02-12T13:22:34.224Z,2.70
2019-02-12T13:25:08.951Z,2.57
2019-02-12T13:27:41.280Z,2.90
2019-02-12T13:30:16.759Z,2.33
2019-02-12T13:32:49.126Z,2.97
2019-02-12T13:35:22.511Z,4.27
2019-02-12T13:37:55.227Z,4.53
2019-02-12T13:40:27.914Z,3.17
2019-02-12T13:43:00.258Z,4.17
2019-02-12T13:45:32.593Z,2.90
2019-02-12T13:48:04.949Z,2.90
2019-02-12T13:50:37.380Z,2.47
2019-02-12T13:53:09.652Z,2.63
2019-02-12T13:55:41.988Z,3.17
2019-02-12T13:58:14.305Z,3.27
2019-02-12T14:00:46.622Z,3.33
2019-02-12T14:03:22.473Z,2.67
2019-02-12T14:05:53.199Z,2.40
2019-02-12T14:08:25.776Z,2.33
2019-02-12T14:11:00.926Z,2.23
2019-02-12T14:13:33.420Z,2.30
2019-02-12T14:16:05.648Z,2.27
2019-02-12T14:18:38.435Z,2.20
2019-02-12T14:21:10.792Z,2.50
2019-02-12T14:23:43.128Z,2.90
2019-02-12T14:26:15.344Z,2.33
2019-02-12T14:28:47.753Z,2.17
2019-02-12T14:31:20.094Z,2.37
2019-02-12T14:33:52.519Z,2.20
2019-02-12T14:36:25.056Z,2.07
2019-02-12T14:38:57.473Z,2.13
2019-02-12T14:41:30.253Z,2.30
2019-02-12T14:44:02.641Z,2.50
2019-02-12T14:46:35.244Z,2.10
2019-02-12T14:49:07.948Z,2.00
2019-02-12T14:51:40.242Z,1.90
2019-02-12T14:54:12.522Z,1.70
2019-02-12T14:56:44.913Z,1.70
2019-02-12T14:59:17.248Z,1.90
2019-02-12T15:01:50.132Z,2.40
2019-02-12T15:04:22.562Z,3.10
2019-02-12T15:06:55.005Z,3.33
2019-02-12T15:09:27.726Z,2.50
2019-02-12T15:12:00.192Z,2.53
2019-02-12T15:14:32.368Z,4.13
2019-02-12T15:17:04.741Z,3.23
2019-02-12T15:19:36.966Z,3.20
2019-02-12T15:22:09.451Z,2.73
2019-02-12T15:24:41.667Z,3.87
2019-02-12T15:27:14.074Z,3.53
2019-02-12T15:29:46.370Z,3.50
2019-02-12T15:32:18.767Z,3.27
2019-02-12T15:34:51.051Z,2.83
2019-02-12T15:37:23.373Z,3.53
2019-02-12T15:39:55.767Z,3.20
2019-02-12T15:42:28.468Z,2.80
2019-02-12T15:45:00.897Z,2.30
2019-02-12T15:47:33.152Z,2.77
2019-02-12T15:50:05.592Z,2.50
2019-02-12T15:52:37.769Z,3.37
2019-02-12T15:55:11.666Z,3.47
2019-02-12T15:57:45.945Z,2.60
2019-02-12T16:00:20.430Z,3.37
2019-02-12T16:02:54.509Z,2.63
2019-02-12T16:05:26.712Z,3.20
2019-02-12T16:08:02.282Z,4.47
2019-02-12T16:10:34.689Z,3.57
2019-02-12T16:13:07.192Z,3.17
2019-02-12T16:15:39.422Z,2.80
2019-02-12T16:18:11.771Z,2.50
2019-02-12T16:20:44.044Z,2.87
2019-02-12T16:23:16.355Z,3.50
2019-02-12T16:25:48.596Z,3.13
2019-02-12T16:28:20.930Z,2.40
2019-02-12T16:30:53.622Z,2.07
2019-02-12T16:33:25.929Z,1.83
2019-02-12T16:35:58.252Z,2.00
2019-02-12T16:38:30.481Z,2.30
2019-02-12T16:41:02.732Z,2.00
2019-02-12T16:43:35.068Z,2.20
2019-02-12T16:46:13.243Z,2.00
2019-02-12T16:48:45.598Z,2.80
2019-02-12T16:51:17.937Z,2.30
2019-02-12T16:53:50.237Z,2.50
2019-02-12T16:56:22.711Z,2.70
2019-02-12T16:59:02.122Z,4.13
2019-02-12T17:01:28.735Z,3.73
2019-02-12T17:04:00.978Z,2.70
2019-02-12T17:06:33.439Z,3.40
2019-02-12T17:09:06.322Z,3.73
2019-02-12T17:11:38.998Z,4.27
2019-02-12T17:14:11.144Z,12.00
2019-02-12T17:16:43.346Z,8.80
2019-02-12T17:19:15.587Z,9.00
2019-02-12T17:21:49.186Z,6.33
2019-02-12T17:24:21.616Z,4.43
2019-02-12T17:26:53.933Z,5.03
2019-02-12T17:29:26.154Z,4.90
2019-02-12T17:31:58.787Z,7.13
2019-02-12T17:34:30.937Z,7.37
2019-02-12T17:37:03.142Z,7.63
2019-02-12T17:39:35.302Z,5.87
2019-02-12T17:42:07.465Z,4.00
2019-02-12T17:44:39.964Z,3.47
2019-02-12T17:47:12.256Z,3.83
2019-02-12T17:49:44.576Z,3.80
2019-02-12T17:52:16.744Z,4.20
2019-02-12T17:54:49.043Z,5.03
2019-02-12T17:57:21.264Z,4.03
2019-02-12T17:59:53.550Z,4.10
2019-02-12T18:02:25.917Z,4.53
2019-02-12T18:04:58.055Z,4.13
2019-02-12T18:07:30.490Z,4.57
2019-02-12T18:10:02.634Z,5.37
2019-02-12T18:12:35.930Z,4.67
2019-02-12T18:15:09.060Z,5.47
2019-02-12T18:17:41.340Z,4.73
2019-02-12T18:20:13.745Z,4.80
2019-02-12T18:22:46.123Z,4.57
2019-02-12T18:25:18.337Z,3.80
2019-02-12T18:27:50.645Z,4.37
2019-02-12T18:30:22.796Z,4.33
2019-02-12T18:32:54.999Z,3.83
2019-02-12T18:35:27.213Z,4.30
2019-02-12T18:37:59.471Z,3.90
2019-02-12T18:40:31.621Z,3.87
2019-02-12T18:43:04.007Z,4.10
2019-02-12T18:45:36.155Z,5.00
2019-02-12T18:48:08.379Z,5.60
2019-02-12T18:50:41.710Z,6.47
2019-02-12T18:53:14.010Z,6.43
2019-02-12T18:55:46.282Z,6.23
2019-02-12T18:58:18.905Z,4.80
2019-02-12T19:00:51.491Z,4.10
2019-02-12T19:03:24.907Z,4.73
2019-02-12T19:05:57.113Z,4.30
2019-02-12T19:08:29.447Z,3.83
2019-02-12T19:11:01.580Z,3.40
2019-02-12T19:13:33.829Z,4.57
2019-02-12T19:16:07.127Z,3.50
2019-02-12T19:18:39.217Z,3.93
2019-02-12T19:21:12.620Z,3.80
2019-02-12T19:23:45.027Z,3.30
2019-02-12T19:26:17.221Z,3.00
2019-02-12T19:28:49.442Z,3.10
2019-02-12T19:31:21.584Z,3.93
2019-02-12T19:33:53.811Z,5.63
2019-02-12T19:36:25.937Z,5.83
2019-02-12T19:38:58.127Z,6.43
2019-02-12T19:41:30.190Z,6.87
2019-02-12T19:44:02.394Z,8.80
2019-02-12T19:46:34.526Z,10.73
2019-02-12T19:49:06.706Z,10.37
2019-02-12T19:51:38.833Z,11.23
2019-02-12T19:54:11.209Z,13.63
2019-02-12T19:56:43.410Z,10.80
2019-02-12T19:59:15.604Z,11.87
2019-02-12T20:01:47.809Z,13.67
2019-02-12T20:04:20.477Z,10.80
2019-02-12T20:06:52.685Z,8.57
2019-02-12T20:09:24.931Z,8.40
2019-02-12T20:11:57.175Z,7.90
2019-02-12T20:14:29.982Z,8.13
2019-02-12T20:17:02.111Z,8.17
2019-02-12T20:19:34.269Z,9.03
2019-02-12T20:22:06.568Z,11.27
2019-02-12T20:24:38.726Z,10.23
2019-02-12T20:27:10.881Z,11.17
2019-02-12T20:29:43.113Z,10.40
2019-02-12T20:32:15.288Z,12.37
2019-02-12T20:34:47.428Z,12.73
2019-02-12T20:37:19.592Z,9.37
2019-02-12T20:39:51.809Z,9.03
2019-02-12T20:42:25.044Z,13.00
2019-02-12T20:44:57.191Z,12.53
2019-02-12T20:47:29.411Z,10.97
2019-02-12T20:50:01.680Z,9.80
2019-02-12T20:52:34.133Z,10.07
2019-02-12T20:55:06.930Z,9.87
2019-02-12T20:57:39.181Z,9.90
2019-02-12T21:00:17.453Z,9.20
2019-02-12T21:02:49.604Z,7.77
2019-02-12T21:05:21.753Z,8.27
2019-02-12T21:07:53.925Z,9.13
2019-02-12T21:10:26.179Z,8.80
2019-02-12T21:12:58.481Z,8.57
2019-02-12T21:15:30.774Z,8.67
2019-02-12T21:18:03.045Z,9.97
2019-02-12T21:20:35.245Z,9.83
2019-02-12T21:23:07.582Z,11.03
2019-02-12T21:25:39.792Z,9.27
2019-02-12T21:28:12.191Z,9.83
2019-02-12T21:30:44.329Z,10.43
2019-02-12T21:33:16.531Z,11.70
2019-02-12T21:35:48.650Z,10.63
2019-02-12T21:38:21.224Z,11.87
2019-02-12T21:40:53.376Z,12.43
2019-02-12T21:43:25.620Z,12.87
2019-02-12T21:45:57.770Z,11.63
2019-02-12T21:48:29.942Z,11.67
2019-02-12T21:51:02.174Z,11.27
2019-02-12T21:53:34.332Z,10.77
2019-02-12T21:56:06.486Z,10.67
2019-02-12T21:58:38.652Z,9.37
2019-02-12T22:01:10.849Z,8.87
2019-02-12T22:03:43.206Z,9.73
2019-02-12T22:06:15.395Z,11.23
2019-02-12T22:08:48.189Z,11.33
2019-02-12T22:11:20.260Z,11.17
2019-02-12T22:13:52.432Z,11.73
2019-02-12T22:16:24.648Z,11.47
2019-02-12T22:18:56.788Z,10.87
2019-02-12T22:21:28.941Z,11.37
2019-02-12T22:24:01.087Z,10.57
2019-02-12T22:26:33.402Z,11.10
2019-02-12T22:29:06.376Z,12.50
2019-02-12T22:31:38.617Z,13.03
2019-02-12T22:34:10.843Z,12.37
2019-02-12T22:36:43.004Z,12.63
2019-02-12T22:39:15.147Z,13.53
2019-02-12T22:41:47.310Z,14.37
2019-02-12T22:44:19.534Z,11.90
2019-02-12T22:46:51.691Z,11.07
2019-02-12T22:49:23.760Z,12.07
2019-02-12T22:51:56.073Z,13.17
2019-02-12T22:54:28.328Z,12.70
2019-02-12T22:57:00.513Z,13.40
2019-02-12T22:59:32.759Z,12.90
2019-02-12T23:02:04.955Z,13.40
2019-02-12T23:04:37.172Z,13.33
2019-02-12T23:07:09.485Z,11.43
2019-02-12T23:09:41.778Z,11.30
2019-02-12T23:12:15.017Z,11.30
2019-02-12T23:14:47.166Z,10.97
2019-02-12T23:17:19.352Z,11.43
2019-02-12T23:19:51.491Z,10.90
2019-02-12T23:22:23.768Z,12.13
2019-02-12T23:24:55.991Z,11.57
2019-02-12T23:27:28.233Z,12.90
2019-02-12T23:30:00.548Z,11.50
2019-02-12T23:32:32.880Z,13.60
2019-02-12T23:35:05.114Z,13.80
2019-02-12T23:37:37.467Z,12.40
2019-02-12T23:40:09.689Z,12.90
2019-02-12T23:42:41.873Z,12.00
2019-02-12T23:45:14.098Z,11.30
2019-02-12T23:47:46.339Z,12.00
2019-02-12T23:50:18.479Z,12.93
2019-02-12T23:52:50.665Z,12.63
2019-02-12T23:55:22.810Z,13.00
2019-02-12T23:57:54.984Z,11.57
